createdAt,value
2017-01-19T00:00:13.885Z,10.49
2017-01-19T00:00:54.375Z,10.49
2017-01-19T00:01:34.890Z,10.39
2017-01-19T00:02:15.385Z,10.39
2017-01-19T00:02:55.882Z,10.39
2017-01-19T00:03:36.373Z,10.58
2017-01-19T00:04:16.869Z,10.49
2017-01-19T00:04:57.350Z,10.49
2017-01-19T00:05:37.833Z,10.39
2017-01-19T00:06:18.330Z,10.68
2017-01-19T00:06:58.820Z,10.58
2017-01-19T00:07:39.314Z,10.39
2017-01-19T00:08:19.795Z,10.68
2017-01-19T00:09:00.294Z,10.49
2017-01-19T00:09:40.805Z,10.49
2017-01-19T00:10:21.286Z,10.49
2017-01-19T00:11:01.772Z,10.48
2017-01-19T00:11:42.264Z,10.49
2017-01-19T00:12:22.743Z,10.58
2017-01-19T00:13:03.262Z,10.49
2017-01-19T00:13:43.754Z,10.49
2017-01-19T00:14:24.239Z,10.49
2017-01-19T00:15:04.733Z,10.58
2017-01-19T00:15:45.227Z,10.49
2017-01-19T00:16:25.708Z,10.39
2017-01-19T00:17:06.204Z,10.39
2017-01-19T00:17:46.684Z,10.39
2017-01-19T00:18:27.160Z,10.39
2017-01-19T00:19:07.664Z,10.49
2017-01-19T00:19:48.152Z,10.39
2017-01-19T00:20:28.637Z,10.39
2017-01-19T00:21:09.121Z,10.49
2017-01-19T00:21:49.602Z,10.2
2017-01-19T00:22:30.098Z,10.29
2017-01-19T00:23:10.593Z,10.39
2017-01-19T00:23:51.080Z,10
2017-01-19T00:24:31.575Z,10
2017-01-19T00:25:12.063Z,10.1
2017-01-19T00:25:52.555Z,10.1
2017-01-19T00:26:33.046Z,10
2017-01-19T00:27:13.543Z,10.1
2017-01-19T00:27:54.187Z,10
2017-01-19T00:28:34.671Z,10.1
2017-01-19T00:29:15.148Z,10
2017-01-19T00:29:55.649Z,10.29
2017-01-19T00:30:36.140Z,10.39
2017-01-19T00:31:16.642Z,10.1
2017-01-19T00:31:57.138Z,10.1
2017-01-19T00:32:37.638Z,10.1
2017-01-19T00:33:18.134Z,10.39
2017-01-19T00:33:58.645Z,10.39
2017-01-19T00:34:39.136Z,10.49
2017-01-19T00:35:19.630Z,10.38
2017-01-19T00:36:00.128Z,10.49
2017-01-19T00:36:40.613Z,10.2
2017-01-19T00:37:21.103Z,10.39
2017-01-19T00:38:01.585Z,10.38
2017-01-19T00:38:42.076Z,10.38
2017-01-19T00:39:22.573Z,10.58
2017-01-19T00:40:03.054Z,10.39
2017-01-19T00:40:43.572Z,10.1
2017-01-19T00:41:24.055Z,10.1
2017-01-19T00:42:04.538Z,10.2
2017-01-19T00:42:45.027Z,10.1
2017-01-19T00:43:25.544Z,10.2
2017-01-19T00:44:06.034Z,10.2
2017-01-19T00:44:46.532Z,10
2017-01-19T00:45:27.024Z,10.2
2017-01-19T00:46:07.515Z,10.2
2017-01-19T00:46:47.998Z,10
2017-01-19T00:47:28.495Z,10.19
2017-01-19T00:48:08.999Z,10.1
2017-01-19T00:48:49.521Z,10.2
2017-01-19T00:49:30.017Z,10
2017-01-19T00:50:10.528Z,10
2017-01-19T00:50:51.016Z,10.1
2017-01-19T00:51:31.511Z,10.1
2017-01-19T00:52:12.008Z,10
2017-01-19T00:52:52.492Z,10.2
2017-01-19T00:53:32.982Z,10.2
2017-01-19T00:54:13.466Z,10.1
2017-01-19T00:54:53.972Z,10.2
2017-01-19T00:55:34.462Z,10.29
2017-01-19T00:56:14.954Z,10.2
2017-01-19T00:56:55.439Z,10
2017-01-19T00:57:35.929Z,10.19
2017-01-19T00:58:16.422Z,10.2
2017-01-19T00:58:56.910Z,10.19
2017-01-19T00:59:37.399Z,10.19
2017-01-19T01:00:17.884Z,10
2017-01-19T01:00:58.370Z,10
2017-01-19T01:01:38.863Z,10.19
2017-01-19T01:02:19.352Z,10.1
2017-01-19T01:02:59.849Z,10.2
2017-01-19T01:03:40.350Z,10.2
2017-01-19T01:04:20.868Z,10.29
2017-01-19T01:05:01.352Z,10.2
2017-01-19T01:05:41.865Z,10.2
2017-01-19T01:06:22.349Z,10.19
2017-01-19T01:07:02.862Z,10.19
2017-01-19T01:07:43.350Z,10.19
2017-01-19T01:08:23.858Z,10
2017-01-19T01:09:04.346Z,10.19
2017-01-19T01:09:44.841Z,10.2
2017-01-19T01:10:25.336Z,10.19
2017-01-19T01:11:05.810Z,10.19
2017-01-19T01:11:46.302Z,10.19
2017-01-19T01:12:26.789Z,10.2
2017-01-19T01:13:07.290Z,9.91
2017-01-19T01:13:47.787Z,10.2
2017-01-19T01:14:28.298Z,10.2
2017-01-19T01:15:08.785Z,10.19
2017-01-19T01:15:49.302Z,10.2
2017-01-19T01:16:29.792Z,10
2017-01-19T01:17:10.281Z,10
2017-01-19T01:17:50.778Z,10
2017-01-19T01:18:31.247Z,9.81
2017-01-19T01:19:11.746Z,9.91
2017-01-19T01:21:10.293Z,9.81
2017-01-19T01:21:50.782Z,9.81
2017-01-19T01:22:31.262Z,9.81
2017-01-19T01:23:11.759Z,10
2017-01-19T01:23:52.250Z,9.81
2017-01-19T01:24:32.739Z,9.81
2017-01-19T01:25:13.224Z,10.1
2017-01-19T01:25:53.720Z,10.19
2017-01-19T01:26:34.213Z,10.19
2017-01-19T01:27:14.705Z,10.19
2017-01-19T01:27:55.215Z,9.91
2017-01-19T01:28:35.700Z,9.91
2017-01-19T01:29:16.198Z,10.19
2017-01-19T01:29:56.698Z,10.19
2017-01-19T01:30:37.183Z,10.2
2017-01-19T01:31:17.677Z,10
2017-01-19T01:31:58.162Z,9.81
2017-01-19T01:32:38.656Z,9.91
2017-01-19T01:33:19.146Z,9.81
2017-01-19T01:33:59.696Z,9.81
2017-01-19T01:34:40.195Z,9.91
2017-01-19T01:35:20.698Z,9.81
2017-01-19T01:36:01.193Z,9.81
2017-01-19T01:36:41.696Z,10
2017-01-19T01:37:22.192Z,9.81
2017-01-19T01:38:02.685Z,9.81
2017-01-19T01:38:43.173Z,9.81
2017-01-19T01:39:23.664Z,9.91
2017-01-19T01:40:04.142Z,9.81
2017-01-19T01:40:44.640Z,9.91
2017-01-19T01:41:25.133Z,9.81
2017-01-19T01:42:05.622Z,10
2017-01-19T01:42:46.111Z,10
2017-01-19T01:43:26.607Z,9.81
2017-01-19T01:44:07.098Z,9.91
2017-01-19T01:44:47.584Z,10
2017-01-19T01:45:28.098Z,10
2017-01-19T01:46:08.585Z,9.81
2017-01-19T01:46:49.098Z,9.81
2017-01-19T01:47:29.585Z,10
2017-01-19T01:48:10.094Z,9.81
2017-01-19T01:48:50.584Z,10
2017-01-19T01:49:31.079Z,9.71
2017-01-19T01:50:11.556Z,9.81
2017-01-19T01:50:52.044Z,9.91
2017-01-19T01:51:32.543Z,9.71
2017-01-19T01:52:13.030Z,9.91
2017-01-19T01:52:53.534Z,9.52
2017-01-19T01:53:34.858Z,9.62
2017-01-19T01:54:14.479Z,9.91
2017-01-19T01:54:54.972Z,9.81
2017-01-19T01:55:35.471Z,9.81
2017-01-19T01:56:15.959Z,9.81
2017-01-19T01:56:56.450Z,9.81
2017-01-19T01:59:09.250Z,9.62
2017-01-19T01:59:49.735Z,9.62
2017-01-19T02:00:30.246Z,9.72
2017-01-19T02:01:10.738Z,9.72
2017-01-19T02:01:51.260Z,9.81
2017-01-19T02:02:31.757Z,9.62
2017-01-19T02:03:12.246Z,9.72
2017-01-19T02:03:52.731Z,9.81
2017-01-19T02:04:33.212Z,9.72
2017-01-19T02:05:13.708Z,9.81
2017-01-19T02:05:54.191Z,9.62
2017-01-19T02:06:34.691Z,9.62
2017-01-19T02:07:15.178Z,9.72
2017-01-19T02:07:55.688Z,9.81
2017-01-19T02:08:36.180Z,9.81
2017-01-19T02:09:16.691Z,9.81
2017-01-19T02:09:57.187Z,9.81
2017-01-19T02:10:37.675Z,9.61
2017-01-19T02:11:18.155Z,9.72
2017-01-19T02:11:58.664Z,9.72
2017-01-19T02:12:39.136Z,9.72
2017-01-19T02:13:19.625Z,9.72
2017-01-19T02:14:00.117Z,9.72
2017-01-19T02:14:40.670Z,9.72
2017-01-19T02:15:21.174Z,9.81
2017-01-19T02:16:01.654Z,9.81
2017-01-19T02:16:42.151Z,9.72
2017-01-19T02:17:22.659Z,9.72
2017-01-19T02:18:03.210Z,9.72
2017-01-19T02:18:43.700Z,9.91
2017-01-19T02:19:24.220Z,9.81
2017-01-19T02:20:04.700Z,9.62
2017-01-19T02:20:45.204Z,9.81
2017-01-19T02:21:25.698Z,9.61
2017-01-19T02:22:06.179Z,9.71
2017-01-19T02:22:46.679Z,9.81
2017-01-19T02:23:27.168Z,9.81
2017-01-19T02:24:07.685Z,9.81
2017-01-19T02:24:48.160Z,9.62
2017-01-19T02:25:28.651Z,9.81
2017-01-19T02:26:09.137Z,9.62
2017-01-19T02:26:49.630Z,9.81
2017-01-19T02:27:30.127Z,9.81
2017-01-19T02:28:10.617Z,9.81
2017-01-19T02:28:51.109Z,9.91
2017-01-19T02:29:31.591Z,9.62
2017-01-19T02:30:12.071Z,9.81
2017-01-19T02:30:52.573Z,9.72
2017-01-19T02:31:33.063Z,9.72
2017-01-19T02:32:13.561Z,9.81
2017-01-19T02:32:54.061Z,9.62
2017-01-19T02:33:34.561Z,9.91
2017-01-19T02:34:15.059Z,9.81
2017-01-19T02:34:55.570Z,9.81
2017-01-19T02:35:36.060Z,9.81
2017-01-19T02:36:16.572Z,9.52
2017-01-19T02:36:57.059Z,9.62
2017-01-19T02:37:37.568Z,9.62
2017-01-19T02:38:18.057Z,9.72
2017-01-19T02:38:58.569Z,9.81
2017-01-19T02:39:39.051Z,9.81
2017-01-19T02:40:19.540Z,9.81
2017-01-19T02:41:00.028Z,9.72
2017-01-19T02:41:40.517Z,9.71
2017-01-19T02:42:21.016Z,9.72
2017-01-19T02:43:01.506Z,9.81
2017-01-19T02:43:41.996Z,9.71
2017-01-19T02:44:22.482Z,9.81
2017-01-19T02:45:02.970Z,9.81
2017-01-19T02:45:43.461Z,9.72
2017-01-19T02:46:23.952Z,9.71
2017-01-19T02:47:04.445Z,9.71
2017-01-19T02:47:44.928Z,9.81
2017-01-19T02:48:25.416Z,9.72
2017-01-19T02:49:05.911Z,9.52
2017-01-19T02:49:46.398Z,9.61
2017-01-19T02:50:26.905Z,9.81
2017-01-19T02:51:07.396Z,9.52
2017-01-19T02:51:47.892Z,9.62
2017-01-19T02:52:28.396Z,9.61
2017-01-19T02:53:08.878Z,9.52
2017-01-19T02:53:49.371Z,9.62
2017-01-19T02:54:29.861Z,9.43
2017-01-19T02:55:10.356Z,9.43
2017-01-19T02:55:50.850Z,9.43
2017-01-19T02:56:31.352Z,9.62
2017-01-19T02:57:11.842Z,9.62
2017-01-19T02:57:52.336Z,9.52
2017-01-19T02:58:32.818Z,9.52
2017-01-19T02:59:13.321Z,9.62
2017-01-19T02:59:53.815Z,9.52
2017-01-19T03:00:34.306Z,9.62
2017-01-19T03:01:14.797Z,9.62
2017-01-19T03:01:55.288Z,9.62
2017-01-19T03:02:35.803Z,9.72
2017-01-19T03:03:16.288Z,9.62
2017-01-19T03:03:56.804Z,9.62
2017-01-19T03:04:37.296Z,9.91
2017-01-19T03:05:17.793Z,9.62
2017-01-19T03:05:58.288Z,9.81
2017-01-19T03:06:38.778Z,9.52
2017-01-19T03:07:19.271Z,9.61
2017-01-19T03:07:59.762Z,9.52
2017-01-19T03:08:40.256Z,9.62
2017-01-19T03:09:20.733Z,9.62
2017-01-19T03:10:01.238Z,9.52
2017-01-19T03:10:41.811Z,9.43
2017-01-19T03:11:22.299Z,9.52
2017-01-19T03:12:02.790Z,9.62
2017-01-19T03:12:43.279Z,9.81
2017-01-19T03:13:23.778Z,9.42
2017-01-19T03:14:04.277Z,9.61
2017-01-19T03:14:44.772Z,9.81
2017-01-19T03:15:25.276Z,9.81
2017-01-19T03:16:05.769Z,9.62
2017-01-19T03:16:46.252Z,9.61
2017-01-19T03:17:26.741Z,9.52
2017-01-19T03:18:07.234Z,9.52
2017-01-19T03:18:47.722Z,9.62
2017-01-19T03:19:28.218Z,9.61
2017-01-19T03:20:08.697Z,9.71
2017-01-19T03:20:49.201Z,9.52
2017-01-19T03:21:29.688Z,9.71
2017-01-19T03:22:10.171Z,9.81
2017-01-19T03:22:50.665Z,9.62
2017-01-19T03:23:31.157Z,9.33
2017-01-19T03:24:11.649Z,9.43
2017-01-19T03:24:52.149Z,9.62
2017-01-19T03:26:44.818Z,9.72
2017-01-19T03:27:25.321Z,9.52
2017-01-19T03:28:05.809Z,9.61
2017-01-19T03:28:46.317Z,9.42
2017-01-19T03:29:26.807Z,9.72
2017-01-19T03:30:07.303Z,9.33
2017-01-19T03:30:47.793Z,9.43
2017-01-19T03:31:28.266Z,9.43
2017-01-19T03:32:08.764Z,9.42
2017-01-19T03:32:49.253Z,9.43
2017-01-19T03:33:29.750Z,9.33
2017-01-19T03:34:10.243Z,9.61
2017-01-19T03:34:50.733Z,9.33
2017-01-19T03:35:31.219Z,9.43
2017-01-19T03:36:11.700Z,9.43
2017-01-19T03:36:52.214Z,9.33
2017-01-19T03:37:32.702Z,9.52
2017-01-19T03:38:13.191Z,9.43
2017-01-19T03:38:53.674Z,9.33
2017-01-19T03:39:34.162Z,9.52
2017-01-19T03:40:14.661Z,9.43
2017-01-19T03:40:55.142Z,9.42
2017-01-19T03:41:35.639Z,9.61
2017-01-19T03:42:16.145Z,9.33
2017-01-19T03:42:56.642Z,9.42
2017-01-19T03:43:37.141Z,9.62
2017-01-19T03:44:17.639Z,9.52
2017-01-19T03:44:58.126Z,9.42
2017-01-19T03:45:38.606Z,9.33
2017-01-19T03:46:19.100Z,9.43
2017-01-19T03:46:59.584Z,9.43
2017-01-19T03:47:40.095Z,9.43
2017-01-19T03:48:20.586Z,9.33
2017-01-19T03:49:01.093Z,9.42
2017-01-19T03:49:41.585Z,9.72
2017-01-19T03:50:22.079Z,9.33
2017-01-19T03:51:02.562Z,9.52
2017-01-19T03:51:43.041Z,9.43
2017-01-19T03:52:23.541Z,9.33
2017-01-19T03:53:04.031Z,9.62
2017-01-19T03:53:44.539Z,9.62
2017-01-19T03:54:25.034Z,9.43
2017-01-19T03:55:05.525Z,9.62
2017-01-19T03:55:46.004Z,9.52
2017-01-19T03:56:26.479Z,9.52
2017-01-19T03:57:06.988Z,9.62
2017-01-19T03:57:47.475Z,9.33
2017-01-19T03:58:27.968Z,9.62
2017-01-19T03:59:08.449Z,9.52
2017-01-19T03:59:48.925Z,9.33
2017-01-19T04:00:29.419Z,9.62
2017-01-19T04:01:09.899Z,9.61
2017-01-19T04:01:50.397Z,9.61
2017-01-19T04:02:30.893Z,9.52
2017-01-19T04:03:11.385Z,9.52
2017-01-19T04:03:51.876Z,9.52
2017-01-19T04:04:32.365Z,9.62
2017-01-19T04:05:12.865Z,9.33
2017-01-19T04:05:53.342Z,9.62
2017-01-19T04:06:33.816Z,9.52
2017-01-19T04:07:14.328Z,9.42
2017-01-19T04:07:54.802Z,9.42
2017-01-19T04:08:35.290Z,9.52
2017-01-19T04:09:15.783Z,9.52
2017-01-19T04:09:56.268Z,9.33
2017-01-19T04:10:36.767Z,9.42
2017-01-19T04:11:17.258Z,9.33
2017-01-19T04:11:57.758Z,9.33
2017-01-19T04:12:38.256Z,9.71
2017-01-19T04:13:18.746Z,9.71
2017-01-19T04:13:59.232Z,9.61
2017-01-19T04:14:39.711Z,9.52
2017-01-19T04:15:20.213Z,9.33
2017-01-19T04:16:00.705Z,9.71
2017-01-19T04:16:41.201Z,9.33
2017-01-19T04:17:21.699Z,9.61
2017-01-19T04:18:02.216Z,9.42
2017-01-19T04:18:42.700Z,9.61
2017-01-19T04:19:23.222Z,9.61
2017-01-19T04:20:03.712Z,9.33
2017-01-19T04:20:44.209Z,9.33
2017-01-19T04:21:24.704Z,9.61
2017-01-19T04:22:05.212Z,9.42
2017-01-19T04:22:45.697Z,9.23
2017-01-19T04:23:26.182Z,9.33
2017-01-19T04:24:06.670Z,9.33
2017-01-19T04:24:47.157Z,9.33
2017-01-19T04:25:27.652Z,9.52
2017-01-19T04:26:08.211Z,9.43
2017-01-19T04:26:48.694Z,9.42
2017-01-19T04:27:29.189Z,9.62
2017-01-19T04:28:09.671Z,9.52
2017-01-19T04:28:50.168Z,9.33
2017-01-19T04:29:30.674Z,9.61
2017-01-19T04:30:11.173Z,9.62
2017-01-19T04:30:51.656Z,9.52
2017-01-19T04:31:32.146Z,9.61
2017-01-19T04:32:12.662Z,9.52
2017-01-19T04:32:53.141Z,9.61
2017-01-19T04:33:33.655Z,9.52
2017-01-19T04:34:14.139Z,9.42
2017-01-19T04:34:54.658Z,9.52
2017-01-19T04:35:35.142Z,9.33
2017-01-19T04:36:15.642Z,9.33
2017-01-19T04:36:56.133Z,9.42
2017-01-19T04:37:36.642Z,9.33
2017-01-19T04:38:17.135Z,9.52
2017-01-19T04:38:57.625Z,9.42
2017-01-19T04:39:38.108Z,9.52
2017-01-19T04:40:18.587Z,9.61
2017-01-19T04:40:59.080Z,9.42
2017-01-19T04:41:39.555Z,9.42
2017-01-19T04:42:20.031Z,9.61
2017-01-19T04:43:00.541Z,9.42
2017-01-19T04:43:41.027Z,9.33
2017-01-19T04:44:21.542Z,9.61
2017-01-19T04:45:02.028Z,9.42
2017-01-19T04:45:42.520Z,9.33
2017-01-19T04:46:23.002Z,9.61
2017-01-19T04:47:03.477Z,9.42
2017-01-19T04:47:43.964Z,9.61
2017-01-19T04:48:24.468Z,9.81
2017-01-19T04:49:04.939Z,9.61
2017-01-19T04:49:45.431Z,9.61
2017-01-19T04:50:25.920Z,9.52
2017-01-19T04:51:06.434Z,9.61
2017-01-19T04:51:46.922Z,9.52
2017-01-19T04:52:27.430Z,9.61
2017-01-19T04:53:07.919Z,9.33
2017-01-19T04:53:48.436Z,9.33
2017-01-19T04:54:28.917Z,9.61
2017-01-19T04:55:09.407Z,9.42
2017-01-19T04:55:49.891Z,9.52
2017-01-19T04:56:30.380Z,9.71
2017-01-19T04:57:10.871Z,9.42
2017-01-19T04:57:51.359Z,9.61
2017-01-19T04:58:31.851Z,9.52
2017-01-19T04:59:12.335Z,9.71
2017-01-19T04:59:52.827Z,9.81
2017-01-19T05:00:33.334Z,9.52
2017-01-19T05:01:13.813Z,9.42
2017-01-19T05:01:54.327Z,9.61
2017-01-19T05:02:34.834Z,9.52
2017-01-19T05:03:15.322Z,9.61
2017-01-19T05:03:55.808Z,9.42
2017-01-19T05:04:36.310Z,9.42
2017-01-19T05:05:16.797Z,9.61
2017-01-19T05:05:57.291Z,9.52
2017-01-19T05:06:37.776Z,9.71
2017-01-19T05:07:18.263Z,9.42
2017-01-19T05:07:58.758Z,9.42
2017-01-19T05:08:39.246Z,9.43
2017-01-19T05:09:19.738Z,9.52
2017-01-19T05:10:00.219Z,9.52
2017-01-19T05:10:40.707Z,9.42
2017-01-19T05:11:21.203Z,9.33
2017-01-19T05:12:01.689Z,9.42
2017-01-19T05:12:42.183Z,9.61
2017-01-19T05:13:22.663Z,9.42
2017-01-19T05:14:03.159Z,9.61
2017-01-19T05:14:43.662Z,9.33
2017-01-19T05:15:24.141Z,9.42
2017-01-19T05:16:04.641Z,9.42
2017-01-19T05:16:45.236Z,9.33
2017-01-19T05:17:25.751Z,9.52
2017-01-19T05:18:06.239Z,9.71
2017-01-19T05:18:46.741Z,9.52
2017-01-19T05:19:27.232Z,9.81
2017-01-19T05:20:07.725Z,9.52
2017-01-19T05:20:48.256Z,9.42
2017-01-19T05:21:28.756Z,9.71
2017-01-19T05:22:09.247Z,9.71
2017-01-19T05:22:49.736Z,9.42
2017-01-19T05:23:30.224Z,9.42
2017-01-19T05:24:10.717Z,9.33
2017-01-19T05:24:51.200Z,9.61
2017-01-19T05:25:31.684Z,9.42
2017-01-19T05:26:12.182Z,9.33
2017-01-19T05:26:52.670Z,9.33
2017-01-19T05:27:33.178Z,9.42
2017-01-19T05:28:13.667Z,9.61
2017-01-19T05:28:54.164Z,9.23
2017-01-19T05:29:34.673Z,9.61
2017-01-19T05:30:15.174Z,9.52
2017-01-19T05:30:55.671Z,9.33
2017-01-19T05:31:36.186Z,9.33
2017-01-19T05:32:16.666Z,9.42
2017-01-19T05:32:57.175Z,9.33
2017-01-19T05:33:37.656Z,9.33
2017-01-19T05:34:18.148Z,9.52
2017-01-19T05:34:58.638Z,9.42
2017-01-19T05:35:39.115Z,9.42
2017-01-19T05:36:19.629Z,9.33
2017-01-19T05:37:00.110Z,9.43
2017-01-19T05:37:40.603Z,9.61
2017-01-19T05:38:21.085Z,9.61
2017-01-19T05:39:01.578Z,9.42
2017-01-19T05:39:42.072Z,9.61
2017-01-19T05:40:22.562Z,9.42
2017-01-19T05:41:03.065Z,9.61
2017-01-19T05:41:43.553Z,9.33
2017-01-19T05:42:24.054Z,9.42
2017-01-19T05:43:04.549Z,9.61
2017-01-19T05:43:45.057Z,9.61
2017-01-19T05:44:25.548Z,9.61
2017-01-19T05:45:06.047Z,9.42
2017-01-19T05:45:46.545Z,9.42
2017-01-19T05:46:27.041Z,9.52
2017-01-19T05:47:07.525Z,9.52
2017-01-19T05:47:48.017Z,9.42
2017-01-19T05:48:28.504Z,9.23
2017-01-19T05:49:08.992Z,9.52
2017-01-19T05:49:49.502Z,9.62
2017-01-19T05:50:29.989Z,9.42
2017-01-19T05:51:10.504Z,9.61
2017-01-19T05:51:50.990Z,9.61
2017-01-19T05:52:31.489Z,9.42
2017-01-19T05:53:11.993Z,9.52
2017-01-19T05:53:52.510Z,9.61
2017-01-19T05:54:32.992Z,9.23
2017-01-19T05:55:13.496Z,9.13
2017-01-19T05:55:53.984Z,9.52
2017-01-19T05:56:34.466Z,9.33
2017-01-19T05:57:14.963Z,9.52
2017-01-19T05:57:55.441Z,9.61
2017-01-19T05:58:35.955Z,9.52
2017-01-19T05:59:16.441Z,9.13
2017-01-19T05:59:56.947Z,9.04
2017-01-19T06:00:37.437Z,9.23
2017-01-19T06:01:17.929Z,9.23
2017-01-19T06:01:58.433Z,9.23
2017-01-19T06:02:38.927Z,9.61
2017-01-19T06:03:19.421Z,9.61
2017-01-19T06:03:59.895Z,9.52
2017-01-19T06:04:40.388Z,9.52
2017-01-19T06:05:20.877Z,9.52
2017-01-19T06:06:01.390Z,9.42
2017-01-19T06:06:41.875Z,9.33
2017-01-19T06:07:22.370Z,9.33
2017-01-19T06:08:02.867Z,9.52
2017-01-19T06:08:43.352Z,9.61
2017-01-19T06:09:23.838Z,9.61
2017-01-19T06:10:04.319Z,9.52
2017-01-19T06:10:44.836Z,9.52
2017-01-19T06:11:25.319Z,9.52
2017-01-19T06:12:05.813Z,9.61
2017-01-19T06:12:46.317Z,9.42
2017-01-19T06:13:26.831Z,9.61
2017-01-19T06:14:07.317Z,9.42
2017-01-19T06:14:47.815Z,9.42
2017-01-19T06:15:28.293Z,9.71
2017-01-19T06:16:08.785Z,9.71
2017-01-19T06:16:49.293Z,9.52
2017-01-19T06:17:29.790Z,9.52
2017-01-19T06:18:10.286Z,9.52
2017-01-19T06:18:50.771Z,9.52
2017-01-19T06:19:31.273Z,9.33
2017-01-19T06:20:11.758Z,9.52
2017-01-19T06:20:52.260Z,9.61
2017-01-19T06:21:32.756Z,9.42
2017-01-19T06:22:13.266Z,9.52
2017-01-19T06:22:53.755Z,9.42
2017-01-19T06:23:34.251Z,9.81
2017-01-19T06:24:14.734Z,9.42
2017-01-19T06:24:55.231Z,9.33
2017-01-19T06:25:35.724Z,9.61
2017-01-19T06:26:16.208Z,9.52
2017-01-19T06:26:56.723Z,9.81
2017-01-19T06:27:37.204Z,9.81
2017-01-19T06:28:17.716Z,9.52
2017-01-19T06:28:58.201Z,9.81
2017-01-19T06:29:38.715Z,9.71
2017-01-19T06:30:19.208Z,9.71
2017-01-19T06:30:59.707Z,9.81
2017-01-19T06:31:40.197Z,9.81
2017-01-19T06:32:20.680Z,9.42
2017-01-19T06:33:01.158Z,9.52
2017-01-19T06:33:41.645Z,9.52
2017-01-19T06:34:22.163Z,9.52
2017-01-19T06:35:02.645Z,9.91
2017-01-19T06:35:43.137Z,9.81
2017-01-19T06:36:23.637Z,9.91
2017-01-19T06:37:04.125Z,9.81
2017-01-19T06:37:44.616Z,9.71
2017-01-19T06:38:25.115Z,9.81
2017-01-19T06:39:05.619Z,9.71
2017-01-19T06:39:46.190Z,9.61
2017-01-19T06:40:26.669Z,9.81
2017-01-19T06:41:07.156Z,9.81
2017-01-19T06:41:47.639Z,9.71
2017-01-19T06:42:28.145Z,9.81
2017-01-19T06:43:08.637Z,9.71
2017-01-19T06:43:49.248Z,9.91
2017-01-19T06:44:29.737Z,9.61
2017-01-19T06:45:10.243Z,9.52
2017-01-19T06:45:50.734Z,9.71
2017-01-19T06:46:31.233Z,9.71
2017-01-19T06:47:11.713Z,9.81
2017-01-19T06:47:52.198Z,9.81
2017-01-19T06:48:32.693Z,9.81
2017-01-19T06:49:13.181Z,9.71
2017-01-19T06:49:53.697Z,9.72
2017-01-19T06:50:34.193Z,9.81
2017-01-19T06:51:14.689Z,9.71
2017-01-19T06:51:55.179Z,9.71
2017-01-19T06:52:35.696Z,9.61
2017-01-19T06:53:16.186Z,9.61
2017-01-19T06:53:56.690Z,9.81
2017-01-19T06:54:37.177Z,10
2017-01-19T06:55:17.667Z,10
2017-01-19T06:55:58.153Z,10
2017-01-19T06:56:38.638Z,9.81
2017-01-19T06:57:19.131Z,9.91
2017-01-19T06:57:59.624Z,9.61
2017-01-19T06:58:40.120Z,9.61
2017-01-19T06:59:20.623Z,9.61
2017-01-19T07:00:01.116Z,10
2017-01-19T07:00:41.616Z,9.81
2017-01-19T07:01:22.112Z,9.81
2017-01-19T07:02:02.596Z,10
2017-01-19T07:02:43.082Z,9.81
2017-01-19T07:03:23.573Z,10
2017-01-19T07:04:04.063Z,9.81
2017-01-19T07:04:44.556Z,10.29
2017-01-19T07:05:25.043Z,10.29
2017-01-19T07:06:05.542Z,9.81
2017-01-19T07:06:46.033Z,9.91
2017-01-19T07:07:26.523Z,10.1
2017-01-19T07:08:07.020Z,10.19
2017-01-19T07:08:47.510Z,10.29
2017-01-19T07:09:28.008Z,9.81
2017-01-19T07:10:08.487Z,9.81
2017-01-19T07:10:48.972Z,10
2017-01-19T07:11:29.466Z,9.81
2017-01-19T07:12:09.954Z,9.91
2017-01-19T07:12:50.450Z,9.62
2017-01-19T07:13:30.943Z,9.72
2017-01-19T07:14:11.421Z,9.91
2017-01-19T07:14:51.915Z,9.71
2017-01-19T07:15:32.405Z,10
2017-01-19T07:16:12.913Z,9.91
2017-01-19T07:16:53.402Z,9.81
2017-01-19T07:17:33.908Z,10
2017-01-19T07:18:14.377Z,9.81
2017-01-19T07:18:54.885Z,10
2017-01-19T07:19:35.374Z,10
2017-01-19T07:20:15.858Z,10
2017-01-19T07:20:56.352Z,10
2017-01-19T07:21:36.841Z,9.81
2017-01-19T07:22:17.339Z,9.91
2017-01-19T07:22:57.841Z,10
2017-01-19T07:23:38.340Z,9.71
2017-01-19T07:24:18.832Z,9.81
2017-01-19T07:24:59.309Z,9.91
2017-01-19T07:25:39.800Z,9.91
2017-01-19T07:26:20.290Z,9.91
2017-01-19T07:27:00.804Z,9.81
2017-01-19T07:27:41.291Z,9.81
2017-01-19T07:28:21.782Z,9.81
2017-01-19T07:29:02.265Z,9.91
2017-01-19T07:29:42.762Z,9.91
2017-01-19T07:30:23.254Z,9.91
2017-01-19T07:31:03.739Z,9.81
2017-01-19T07:31:44.256Z,9.81
2017-01-19T07:32:24.737Z,9.81
2017-01-19T07:33:05.231Z,9.91
2017-01-19T07:33:45.730Z,9.91
2017-01-19T07:34:26.897Z,10
2017-01-19T07:36:24.599Z,10.1
2017-01-19T07:37:05.081Z,10.1
2017-01-19T07:37:45.571Z,10.2
2017-01-19T07:38:26.067Z,10.2
2017-01-19T07:39:06.548Z,10.2
2017-01-19T07:39:47.042Z,10.2
2017-01-19T07:40:27.524Z,10.1
2017-01-19T07:41:08.006Z,10.2
2017-01-19T07:41:48.510Z,10
2017-01-19T07:42:28.999Z,10.49
2017-01-19T07:43:09.503Z,10.1
2017-01-19T07:43:50.155Z,10.1
2017-01-19T07:44:30.646Z,10.39
2017-01-19T07:45:11.145Z,10.68
2017-01-19T07:45:51.635Z,10.39
2017-01-19T07:46:32.120Z,10.49
2017-01-19T07:47:12.612Z,10.39
2017-01-19T07:47:53.092Z,10.49
2017-01-19T07:48:33.590Z,10.39
2017-01-19T07:49:14.081Z,10.1
2017-01-19T07:49:54.814Z,10
2017-01-19T07:50:35.305Z,10.49
2017-01-19T07:51:15.801Z,10.29
2017-01-19T07:51:56.288Z,10.29
2017-01-19T07:52:36.797Z,10.39
2017-01-19T07:53:17.291Z,10.49
2017-01-19T07:53:57.790Z,10.49
2017-01-19T07:54:38.302Z,10.29
2017-01-19T07:55:18.794Z,10.39
2017-01-19T07:55:59.313Z,10.39
2017-01-19T07:56:39.813Z,10.39
2017-01-19T07:57:20.303Z,10.38
2017-01-19T07:58:00.792Z,10.49
2017-01-19T07:58:41.284Z,10.39
2017-01-19T07:59:21.781Z,10.49
2017-01-19T08:00:02.262Z,10.2
2017-01-19T08:00:42.753Z,10
2017-01-19T08:01:23.239Z,10.2
2017-01-19T08:02:03.729Z,10.1
2017-01-19T08:02:44.236Z,10
2017-01-19T08:03:24.727Z,10
2017-01-19T08:04:05.227Z,10.1
2017-01-19T08:04:45.729Z,10.29
2017-01-19T08:05:26.224Z,10.49
2017-01-19T08:06:06.705Z,10.49
2017-01-19T08:06:47.196Z,10.39
2017-01-19T08:07:27.686Z,10.39
2017-01-19T08:08:08.176Z,10.1
2017-01-19T08:08:48.667Z,10.1
2017-01-19T08:09:29.148Z,10.1
2017-01-19T08:10:09.638Z,10.2
2017-01-19T08:10:50.129Z,10.2
2017-01-19T08:11:30.622Z,10.1
2017-01-19T08:12:11.119Z,10.1
2017-01-19T08:12:51.619Z,10.1
2017-01-19T08:13:32.114Z,10.49
2017-01-19T08:14:12.611Z,10.49
2017-01-19T08:14:53.093Z,10.49
2017-01-19T08:15:33.578Z,10.29
2017-01-19T08:16:14.066Z,10
2017-01-19T08:16:54.558Z,10.2
2017-01-19T08:17:35.057Z,10
2017-01-19T08:18:15.543Z,10.2
2017-01-19T08:18:56.026Z,10.2
2017-01-19T08:19:36.509Z,10.1
2017-01-19T08:20:17.229Z,10.2
2017-01-19T08:20:57.786Z,10
2017-01-19T08:21:38.268Z,10.1
2017-01-19T08:22:18.771Z,10.1
2017-01-19T08:22:59.267Z,10.1
2017-01-19T08:23:39.755Z,10.1
2017-01-19T08:24:20.236Z,10.2
2017-01-19T08:25:00.724Z,10.1
2017-01-19T08:25:41.216Z,10.1
2017-01-19T08:26:21.717Z,10.2
2017-01-19T08:27:02.216Z,10.2
2017-01-19T08:27:42.702Z,10.2
2017-01-19T08:28:23.201Z,10.2
2017-01-19T08:29:03.705Z,10.01
2017-01-19T08:29:44.212Z,10
2017-01-19T08:30:24.711Z,10.29
2017-01-19T08:31:05.224Z,10.29
2017-01-19T08:31:45.704Z,10.2
2017-01-19T08:32:26.193Z,10.2
2017-01-19T08:33:06.677Z,10.2
2017-01-19T08:33:47.163Z,10.1
2017-01-19T08:34:27.656Z,9.91
2017-01-19T08:35:08.162Z,10.01
2017-01-19T08:35:48.648Z,10
2017-01-19T08:36:29.147Z,9.91
2017-01-19T08:37:09.643Z,10.1
2017-01-19T08:37:50.115Z,10
2017-01-19T08:38:30.594Z,10.29
2017-01-19T08:39:11.088Z,10.29
2017-01-19T08:39:51.568Z,9.91
2017-01-19T08:40:32.049Z,9.81
2017-01-19T08:41:12.672Z,10.01
2017-01-19T08:41:53.171Z,10.01
2017-01-19T08:42:33.658Z,9.91
2017-01-19T08:43:14.140Z,9.91
2017-01-19T08:43:54.635Z,10.3
2017-01-19T08:44:35.136Z,9.91
2017-01-19T08:45:15.621Z,9.81
2017-01-19T08:45:56.096Z,10.01
2017-01-19T08:46:36.579Z,10.01
2017-01-19T08:47:17.071Z,10.11
2017-01-19T08:47:57.551Z,10.2
2017-01-19T08:48:38.081Z,10.1
2017-01-19T08:49:18.551Z,10.2
2017-01-19T08:49:59.034Z,10.11
2017-01-19T08:50:39.538Z,10.11
2017-01-19T08:51:20.028Z,10.2
2017-01-19T08:52:00.530Z,10.2
2017-01-19T08:52:41.032Z,10.2
2017-01-19T08:53:21.549Z,10.2
2017-01-19T08:54:02.028Z,10.3
2017-01-19T08:54:42.524Z,10.01
2017-01-19T08:55:23.006Z,10.2
2017-01-19T08:56:03.500Z,10.3
2017-01-19T08:56:43.996Z,10.3
2017-01-19T08:57:24.478Z,10.01
2017-01-19T08:58:04.966Z,9.91
2017-01-19T08:58:45.450Z,10.11
2017-01-19T08:59:25.940Z,9.72
2017-01-19T09:00:06.432Z,10.01
2017-01-19T09:00:46.920Z,9.91
2017-01-19T09:01:27.411Z,9.63
2017-01-19T09:02:07.893Z,9.81
2017-01-19T09:02:48.386Z,9.81
2017-01-19T09:03:28.878Z,9.81